Time;durP1;ratioP1;P1;durP2;ratioP2;P2;SDS_P1;SDS_P2;PMS_P1;PMS_P2;Temp;Humidity;BMP_temperature;BMP_pressure;BME280_temperature;BME280_humidity;BME280_pressure;Samples;Min_cycle;Max_cycle;Signal;HPM_P1;HPM_P2
2021/07/19 00:01:18;;;;;;;16.05;10.00;;;;;;;;;;5093327;28;20059;-66
2021/07/19 00:03:45;;;;;;;13.20;10.25;;;;;;;;;;5092951;28;20012;-65
2021/07/19 00:06:11;;;;;;;16.40;10.50;;;;;;;;;;5093361;28;20020;-66
2021/07/19 00:08:38;;;;;;;14.60;10.38;;;;;;;;;;5093103;28;20492;-65
2021/07/19 00:11:04;;;;;;;17.90;12.15;;;;;;;;;;5092845;28;20073;-65
2021/07/19 00:13:31;;;;;;;15.55;10.50;;;;;;;;;;5092682;28;20016;-66
2021/07/19 00:15:56;;;;;;;14.07;10.98;;;;;;;;;;5093009;28;20461;-66
2021/07/19 00:18:24;;;;;;;13.93;10.45;;;;;;;;;;5092601;28;20051;-67
2021/07/19 00:20:50;;;;;;;14.98;10.60;;;;;;;;;;5092308;28;20073;-67
2021/07/19 00:23:16;;;;;;;13.23;10.07;;;;;;;;;;5092059;28;20008;-66
2021/07/19 00:25:41;;;;;;;15.25;10.90;;;;;;;;;;5092489;28;20577;-67
2021/07/19 00:28:08;;;;;;;17.75;10.90;;;;;;;;;;5092559;28;20035;-65
2021/07/19 00:30:36;;;;;;;21.13;10.50;;;;;;;;;;5092643;28;20023;-66
2021/07/19 00:33:04;;;;;;;16.23;11.20;;;;;;;;;;5092544;28;20529;-67
2021/07/19 00:35:29;;;;;;;18.48;11.90;;;;;;;;;;5092916;28;20020;-67
2021/07/19 00:37:55;;;;;;;13.77;11.75;;;;;;;;;;5092952;28;20012;-65
2021/07/19 00:40:22;;;;;;;14.25;10.98;;;;;;;;;;5092720;28;20022;-67
2021/07/19 00:42:49;;;;;;;16.50;12.45;;;;;;;;;;5092332;28;20016;-65
2021/07/19 00:45:17;;;;;;;22.48;13.10;;;;;;;;;;5092691;28;20484;-66
2021/07/19 00:47:44;;;;;;;18.63;12.85;;;;;;;;;;5092399;28;20039;-67
2021/07/19 00:50:10;;;;;;;23.23;12.75;;;;;;;;;;5092867;28;20015;-66
2021/07/19 00:52:37;;;;;;;16.95;11.85;;;;;;;;;;5092471;28;20186;-67
2021/07/19 00:55:04;;;;;;;19.10;12.18;;;;;;;;;;5074161;28;20062;-66
2021/07/19 00:57:30;;;;;;;16.67;12.70;;;;;;;;;;5092582;28;20073;-66
2021/07/19 00:59:57;;;;;;;19.65;12.32;;;;;;;;;;5092798;28;20016;-66
2021/07/19 01:02:23;;;;;;;21.67;12.93;;;;;;;;;;5092512;28;20103;-66
2021/07/19 01:04:51;;;;;;;15.98;11.80;;;;;;;;;;5092468;28;20047;-67
2021/07/19 01:07:18;;;;;;;20.92;11.95;;;;;;;;;;5092428;28;20024;-66
2021/07/19 01:09:45;;;;;;;20.17;12.68;;;;;;;;;;5092227;28;20092;-66
2021/07/19 01:12:11;;;;;;;18.83;13.85;;;;;;;;;;5092689;28;20020;-67
2021/07/19 01:14:37;;;;;;;18.73;12.13;;;;;;;;;;5092482;28;20020;-66
2021/07/19 01:17:07;;;;;;;19.92;11.45;;;;;;;;;;5091965;28;20471;-67
2021/07/19 01:19:34;;;;;;;15.27;11.23;;;;;;;;;;5092198;28;20103;-67
2021/07/19 01:22:18;;;;;;;14.57;11.70;;;;;;;;;;5092256;28;20065;-65
2021/07/19 01:25:04;;;;;;;22.08;12.10;;;;;;;;;;5092078;28;20016;-66
2021/07/19 01:27:41;;;;;;;20.58;12.35;;;;;;;;;;5091880;28;20046;-67
2021/07/19 01:30:08;;;;;;;14.23;11.50;;;;;;;;;;5092442;28;20012;-67
2021/07/19 01:32:36;;;;;;;16.05;11.18;;;;;;;;;;5091930;28;20138;-68
2021/07/19 01:35:04;;;;;;;15.03;10.97;;;;;;;;;;5092701;28;20024;-67
2021/07/19 01:37:30;;;;;;;15.13;11.18;;;;;;;;;;5095884;28;20541;-68
2021/07/19 01:39:56;;;;;;;17.30;11.02;;;;;;;;;;5096027;28;20066;-66
2021/07/19 01:42:22;;;;;;;16.13;11.93;;;;;;;;;;5095852;28;20386;-67
2021/07/19 01:44:49;;;;;;;16.85;11.02;;;;;;;;;;5095631;28;20016;-66
2021/07/19 01:47:16;;;;;;;17.65;11.10;;;;;;;;;;5095568;28;20199;-66
2021/07/19 01:49:42;;;;;;;16.75;10.82;;;;;;;;;;5095537;28;20035;-68
2021/07/19 01:52:09;;;;;;;16.13;11.43;;;;;;;;;;5095610;28;20099;-67
2021/07/19 01:54:36;;;;;;;15.95;10.45;;;;;;;;;;5095453;28;20467;-66
2021/07/19 01:57:02;;;;;;;20.05;12.00;;;;;;;;;;5095268;28;20125;-65
2021/07/19 01:59:28;;;;;;;18.40;12.18;;;;;;;;;;5095518;28;20020;-67
2021/07/19 02:01:54;;;;;;;20.80;12.25;;;;;;;;;;5095599;28;20020;-65
2021/07/19 02:04:21;;;;;;;18.77;12.27;;;;;;;;;;5095197;28;20020;-64
2021/07/19 02:06:48;;;;;;;17.98;11.60;;;;;;;;;;5095146;28;20115;-67
2021/07/19 02:09:14;;;;;;;18.20;12.38;;;;;;;;;;5095458;28;20419;-66
2021/07/19 02:11:41;;;;;;;18.30;11.45;;;;;;;;;;5095024;28;20077;-66
2021/07/19 02:14:10;;;;;;;20.17;12.30;;;;;;;;;;5095281;28;20023;-67
2021/07/19 02:16:39;;;;;;;23.90;13.43;;;;;;;;;;5094735;28;20518;-66
2021/07/19 02:19:05;;;;;;;17.40;12.35;;;;;;;;;;5077116;28;20455;-65
2021/07/19 02:21:32;;;;;;;17.10;11.95;;;;;;;;;;5094902;28;20081;-66
2021/07/19 02:24:00;;;;;;;18.05;11.88;;;;;;;;;;5095113;28;20012;-66
2021/07/19 02:26:26;;;;;;;14.75;11.63;;;;;;;;;;5094309;28;20520;-67
2021/07/19 02:28:52;;;;;;;14.40;11.68;;;;;;;;;;5094702;28;20008;-67
2021/07/19 02:31:20;;;;;;;15.95;12.25;;;;;;;;;;5094723;28;20476;-67
2021/07/19 02:33:47;;;;;;;17.50;11.35;;;;;;;;;;5094869;28;20020;-65
2021/07/19 02:36:14;;;;;;;18.33;12.30;;;;;;;;;;5094839;28;20016;-66
2021/07/19 02:38:41;;;;;;;13.68;11.20;;;;;;;;;;5094775;28;20024;-67
2021/07/19 02:41:11;;;;;;;17.60;11.52;;;;;;;;;;5094386;28;20024;-67
2021/07/19 02:43:38;;;;;;;14.85;10.95;;;;;;;;;;5094359;28;20066;-66
2021/07/19 02:46:06;;;;;;;16.02;10.85;;;;;;;;;;5094196;28;20016;-67
2021/07/19 02:48:36;;;;;;;15.70;11.20;;;;;;;;;;5094390;28;20061;-67
2021/07/19 02:51:03;;;;;;;17.02;11.05;;;;;;;;;;5094419;28;20024;-65
2021/07/19 02:53:30;;;;;;;14.57;10.52;;;;;;;;;;5094333;28;20020;-66
2021/07/19 02:55:58;;;;;;;16.88;10.52;;;;;;;;;;5094630;28;20020;-65
2021/07/19 02:58:24;;;;;;;15.20;10.75;;;;;;;;;;5094471;28;20380;-65
2021/07/19 03:00:50;;;;;;;20.98;10.75;;;;;;;;;;5094430;28;20024;-67
2021/07/19 03:03:19;;;;;;;18.65;11.25;;;;;;;;;;5094486;28;20095;-66
2021/07/19 03:05:49;;;;;;;21.48;11.55;;;;;;;;;;5094170;28;20019;-67
2021/07/19 03:08:16;;;;;;;15.75;10.52;;;;;;;;;;5094211;28;20028;-67
2021/07/19 03:10:44;;;;;;;13.23;10.23;;;;;;;;;;5094009;28;20016;-67
2021/07/19 03:13:12;;;;;;;14.77;10.63;;;;;;;;;;5093951;28;20023;-66
2021/07/19 03:15:39;;;;;;;12.73;10.60;;;;;;;;;;5093841;28;20488;-66
2021/07/19 03:18:08;;;;;;;17.65;11.95;;;;;;;;;;5094192;28;20059;-65
2021/07/19 03:20:38;;;;;;;18.00;11.83;;;;;;;;;;5093811;28;20017;-65
2021/07/19 03:23:06;;;;;;;21.63;11.30;;;;;;;;;;5093979;28;20264;-66
2021/07/19 03:25:32;;;;;;;18.42;10.95;;;;;;;;;;5093345;28;20189;-66
2021/07/19 03:27:59;;;;;;;16.35;11.35;;;;;;;;;;5093985;28;20506;-67
2021/07/19 03:30:25;;;;;;;17.83;11.45;;;;;;;;;;5093779;28;20388;-66
2021/07/19 03:32:52;;;;;;;18.50;11.20;;;;;;;;;;5093611;28;20024;-66
2021/07/19 03:35:19;;;;;;;15.27;11.10;;;;;;;;;;5094385;28;20015;-67
2021/07/19 03:37:45;;;;;;;14.10;11.80;;;;;;;;;;5075443;28;20102;-65
2021/07/19 03:40:12;;;;;;;16.08;11.73;;;;;;;;;;5093604;28;20020;-67
2021/07/19 03:42:39;;;;;;;15.43;11.70;;;;;;;;;;5093583;28;20400;-65
2021/07/19 03:45:05;;;;;;;17.67;12.48;;;;;;;;;;5093323;28;20381;-67
2021/07/19 03:47:32;;;;;;;19.48;12.35;;;;;;;;;;5093384;28;20049;-67
2021/07/19 03:49:58;;;;;;;15.02;11.63;;;;;;;;;;5093597;28;20016;-67
2021/07/19 03:52:25;;;;;;;15.55;11.57;;;;;;;;;;5093866;28;20018;-66
2021/07/19 03:54:51;;;;;;;16.98;11.57;;;;;;;;;;5093240;28;20038;-67
2021/07/19 03:57:17;;;;;;;19.00;11.25;;;;;;;;;;5093653;28;20020;-65
2021/07/19 03:59:45;;;;;;;15.10;11.10;;;;;;;;;;5092425;28;20026;-65
2021/07/19 04:02:13;;;;;;;13.20;10.75;;;;;;;;;;5093460;28;20054;-66
2021/07/19 04:04:52;;;;;;;16.80;11.25;;;;;;;;;;5093399;28;20380;-66
2021/07/19 04:07:18;;;;;;;15.20;11.15;;;;;;;;;;5074814;28;20089;-66
2021/07/19 04:09:44;;;;;;;16.73;10.90;;;;;;;;;;5092973;28;20020;-66
2021/07/19 04:12:11;;;;;;;18.73;12.10;;;;;;;;;;5093323;28;20046;-66
2021/07/19 04:14:38;;;;;;;18.13;11.48;;;;;;;;;;5093028;28;20384;-66
2021/07/19 04:17:05;;;;;;;15.48;10.88;;;;;;;;;;5092757;28;20489;-67
2021/07/19 04:19:31;;;;;;;17.38;11.68;;;;;;;;;;5092909;28;20028;-64
2021/07/19 04:21:57;;;;;;;16.20;11.20;;;;;;;;;;5093016;28;20042;-65
2021/07/19 04:24:24;;;;;;;14.18;10.57;;;;;;;;;;5093155;28;20415;-65
2021/07/19 04:26:50;;;;;;;19.23;10.10;;;;;;;;;;5092336;28;20084;-64
2021/07/19 04:29:22;;;;;;;16.02;11.73;;;;;;;;;;5092877;28;20409;-67
2021/07/19 04:31:55;;;;;;;14.20;10.52;;;;;;;;;;5093023;28;20024;-66
2021/07/19 04:34:28;;;;;;;15.20;10.90;;;;;;;;;;5092811;28;20494;-66
2021/07/19 04:36:57;;;;;;;14.23;9.98;;;;;;;;;;5070128;28;20112;-66
2021/07/19 04:39:23;;;;;;;;;;;;;;;;;;5088563;28;20073;-64
2021/07/19 04:41:49;;;;;;;18.60;11.52;;;;;;;;;;5092596;28;19908;-64
2021/07/19 04:44:14;;;;;;;14.85;10.40;;;;;;;;;;5092952;28;20020;-66
2021/07/19 04:46:40;;;;;;;14.93;10.68;;;;;;;;;;5092525;28;20036;-64
2021/07/19 04:49:08;;;;;;;17.27;10.93;;;;;;;;;;5092772;28;20016;-66
2021/07/19 04:51:35;;;;;;;19.65;12.00;;;;;;;;;;5092441;28;20495;-64
2021/07/19 04:54:02;;;;;;;18.15;11.25;;;;;;;;;;5092576;28;20012;-64
2021/07/19 04:56:30;;;;;;;18.23;12.02;;;;;;;;;;5092856;28;20016;-66
2021/07/19 04:58:57;;;;;;;17.35;12.10;;;;;;;;;;5092439;28;20062;-64
2021/07/19 05:01:24;;;;;;;16.73;11.70;;;;;;;;;;5074719;28;20023;-65
2021/07/19 05:03:51;;;;;;;20.30;12.57;;;;;;;;;;5092475;28;20369;-66
2021/07/19 05:06:17;;;;;;;20.00;14.27;;;;;;;;;;5092423;28;20077;-66
2021/07/19 05:08:46;;;;;;;19.58;14.70;;;;;;;;;;5092276;28;20056;-65
2021/07/19 05:11:13;;;;;;;21.30;13.85;;;;;;;;;;5096423;28;20023;-67
2021/07/19 05:13:39;;;;;;;24.35;15.45;;;;;;;;;;5096601;28;20024;-67
2021/07/19 05:16:06;;;;;;;28.95;16.98;;;;;;;;;;5096410;28;20016;-65
2021/07/19 05:18:32;;;;;;;23.00;15.98;;;;;;;;;;5096040;28;20087;-65
2021/07/19 05:20:59;;;;;;;25.08;16.15;;;;;;;;;;5096396;28;20027;-67
2021/07/19 05:23:25;;;;;;;22.50;17.27;;;;;;;;;;5096208;28;20110;-66
2021/07/19 05:25:51;;;;;;;26.58;18.05;;;;;;;;;;5095776;28;20055;-66
2021/07/19 05:28:18;;;;;;;30.00;17.70;;;;;;;;;;5096082;28;20036;-65
2021/07/19 05:30:46;;;;;;;27.58;17.75;;;;;;;;;;5095647;28;20472;-64
2021/07/19 05:33:12;;;;;;;23.95;17.73;;;;;;;;;;5096063;28;20518;-66
2021/07/19 05:35:39;;;;;;;31.08;18.50;;;;;;;;;;5095777;28;20016;-66
2021/07/19 05:38:05;;;;;;;28.50;18.42;;;;;;;;;;5096053;28;20540;-67
2021/07/19 05:40:31;;;;;;;26.77;18.58;;;;;;;;;;5077621;28;20103;-67
2021/07/19 05:43:00;;;;;;;29.45;19.85;;;;;;;;;;5095813;28;20047;-65
2021/07/19 05:45:27;;;;;;;25.85;17.17;;;;;;;;;;5095100;28;20433;-65
2021/07/19 05:47:53;;;;;;;25.63;17.55;;;;;;;;;;5094607;28;20094;-67
2021/07/19 05:50:19;;;;;;;23.02;17.17;;;;;;;;;;5095235;28;20024;-66
2021/07/19 05:52:44;;;;;;;22.02;15.93;;;;;;;;;;5095120;28;20107;-64
2021/07/19 05:55:10;;;;;;;26.00;16.83;;;;;;;;;;5076981;28;20362;-66
2021/07/19 05:57:36;;;;;;;22.00;16.73;;;;;;;;;;5095250;28;20031;-66
2021/07/19 06:00:02;;;;;;;21.65;16.75;;;;;;;;;;5095203;28;20107;-65
2021/07/19 06:02:28;;;;;;;19.75;15.25;;;;;;;;;;5095292;28;20099;-65
2021/07/19 06:04:54;;;;;;;23.13;13.93;;;;;;;;;;5094991;28;20168;-66
2021/07/19 06:07:19;;;;;;;17.98;13.45;;;;;;;;;;5095545;28;20531;-67
2021/07/19 06:09:46;;;;;;;18.20;13.00;;;;;;;;;;5096224;28;20027;-67
2021/07/19 06:12:13;;;;;;;19.42;14.43;;;;;;;;;;5098784;28;20157;-68
2021/07/19 06:14:39;;;;;;;19.80;14.23;;;;;;;;;;5095198;28;20024;-65
2021/07/19 06:17:04;;;;;;;21.23;14.65;;;;;;;;;;5094667;28;20035;-67
2021/07/19 06:19:30;;;;;;;21.42;13.43;;;;;;;;;;5094915;28;20388;-65
2021/07/19 06:21:56;;;;;;;18.92;13.45;;;;;;;;;;5093240;28;20024;-65
2021/07/19 06:24:22;;;;;;;19.65;13.82;;;;;;;;;;5094911;28;20020;-66
2021/07/19 06:26:48;;;;;;;16.40;13.20;;;;;;;;;;5094145;28;20051;-64
2021/07/19 06:29:14;;;;;;;17.25;12.50;;;;;;;;;;5094975;28;20028;-65
2021/07/19 06:31:40;;;;;;;18.45;13.30;;;;;;;;;;5094316;28;20551;-64
2021/07/19 06:34:08;;;;;;;15.85;11.88;;;;;;;;;;5094993;28;20099;-66
2021/07/19 06:36:33;;;;;;;14.23;11.98;;;;;;;;;;5094912;28;20016;-66
2021/07/19 06:38:59;;;;;;;17.65;11.55;;;;;;;;;;5094357;28;20376;-65
2021/07/19 06:41:24;;;;;;;16.48;11.18;;;;;;;;;;5076042;28;20029;-65
2021/07/19 06:43:50;;;;;;;15.40;12.57;;;;;;;;;;5073499;28;20016;-65
2021/07/19 06:46:15;;;;;;;16.65;11.57;;;;;;;;;;5073884;28;20052;-66
2021/07/19 06:48:40;;;;;;;18.25;11.73;;;;;;;;;;5073399;28;20008;-66
2021/07/19 06:51:06;;;;;;;18.90;11.48;;;;;;;;;;5073962;28;20024;-67
2021/07/19 06:53:33;;;;;;;19.55;10.90;;;;;;;;;;5073742;28;20365;-65
2021/07/19 06:55:58;;;;;;;16.13;10.98;;;;;;;;;;5073239;28;20143;-66
2021/07/19 06:58:24;;;;;;;12.02;10.13;;;;;;;;;;5074110;28;20083;-66
2021/07/19 07:00:50;;;;;;;20.80;12.63;;;;;;;;;;5073276;28;20023;-66
2021/07/19 07:03:16;;;;;;;15.02;10.60;;;;;;;;;;5073328;28;20020;-67
2021/07/19 07:05:42;;;;;;;19.88;11.23;;;;;;;;;;5073737;28;20024;-67
2021/07/19 07:08:08;;;;;;;15.23;10.68;;;;;;;;;;5073630;28;20039;-67
2021/07/19 07:10:34;;;;;;;14.32;10.50;;;;;;;;;;5072833;28;20020;-67
2021/07/19 07:12:59;;;;;;;15.02;9.32;;;;;;;;;;5073434;28;20008;-67
2021/07/19 07:15:25;;;;;;;14.02;9.27;;;;;;;;;;5055643;28;20020;-66
2021/07/19 07:17:50;;;;;;;12.57;8.85;;;;;;;;;;5072680;28;20465;-65
2021/07/19 07:20:16;;;;;;;14.38;8.98;;;;;;;;;;5073257;28;20021;-66
2021/07/19 07:22:41;;;;;;;12.63;9.00;;;;;;;;;;5073228;28;20631;-68
2021/07/19 07:25:07;;;;;;;15.60;8.43;;;;;;;;;;5072744;28;20053;-67
2021/07/19 07:27:34;;;;;;;10.57;7.70;;;;;;;;;;5072956;28;20056;-65
2021/07/19 07:29:59;;;;;;;9.80;6.93;;;;;;;;;;5073178;28;20028;-66
2021/07/19 07:32:26;;;;;;;12.27;8.23;;;;;;;;;;5072495;28;20021;-66
2021/07/19 07:34:51;;;;;;;10.30;7.30;;;;;;;;;;5072392;28;20023;-68
2021/07/19 07:37:17;;;;;;;10.07;7.47;;;;;;;;;;5073303;28;20107;-69
2021/07/19 07:39:42;;;;;;;13.27;7.80;;;;;;;;;;5072529;28;20419;-66
2021/07/19 07:42:09;;;;;;;14.35;7.78;;;;;;;;;;5072954;28;20115;-68
2021/07/19 07:44:36;;;;;;;10.32;7.00;;;;;;;;;;5073045;28;20013;-65
2021/07/19 07:47:01;;;;;;;8.80;7.65;;;;;;;;;;5072104;28;20025;-69
2021/07/19 07:49:27;;;;;;;16.65;8.38;;;;;;;;;;5072873;28;20035;-66
2021/07/19 07:51:52;;;;;;;11.68;8.05;;;;;;;;;;5072730;28;20028;-67
2021/07/19 07:54:18;;;;;;;10.63;8.07;;;;;;;;;;5054483;28;20024;-69
2021/07/19 07:56:44;;;;;;;17.08;9.95;;;;;;;;;;5072532;28;20031;-67
2021/07/19 07:59:09;;;;;;;14.60;9.05;;;;;;;;;;5072527;28;20024;-65
2021/07/19 08:01:35;;;;;;;14.60;9.30;;;;;;;;;;5072061;28;20039;-67
2021/07/19 08:04:00;;;;;;;13.95;10.20;;;;;;;;;;5072506;28;20105;-69
2021/07/19 08:06:26;;;;;;;12.95;9.68;;;;;;;;;;5072716;28;20491;-66
2021/07/19 08:08:51;;;;;;;12.02;9.40;;;;;;;;;;5071813;28;20086;-68
2021/07/19 08:11:17;;;;;;;12.55;8.88;;;;;;;;;;5072511;28;20056;-68
2021/07/19 08:13:42;;;;;;;15.50;10.73;;;;;;;;;;5072451;28;20465;-69
2021/07/19 08:16:08;;;;;;;16.73;9.68;;;;;;;;;;5071786;28;20024;-66
2021/07/19 08:18:33;;;;;;;14.70;8.98;;;;;;;;;;5072521;28;20103;-68
2021/07/19 08:20:59;;;;;;;14.32;8.90;;;;;;;;;;5072148;28;20405;-66
2021/07/19 08:23:24;;;;;;;14.57;9.07;;;;;;;;;;5072351;28;20425;-67
2021/07/19 08:25:50;;;;;;;15.27;8.55;;;;;;;;;;5071621;28;20041;-67
2021/07/19 08:28:15;;;;;;;14.88;8.85;;;;;;;;;;5072828;28;20116;-67
2021/07/19 08:30:41;;;;;;;13.18;9.00;;;;;;;;;;5072441;28;20385;-69
2021/07/19 08:33:07;;;;;;;14.32;8.65;;;;;;;;;;5071952;28;20012;-66
2021/07/19 08:35:33;;;;;;;13.30;8.57;;;;;;;;;;5072500;28;20016;-64
2021/07/19 08:38:00;;;;;;;11.40;8.93;;;;;;;;;;5072552;28;20027;-66
2021/07/19 08:40:26;;;;;;;11.73;8.60;;;;;;;;;;5071557;28;20111;-66
2021/07/19 08:42:51;;;;;;;13.40;8.60;;;;;;;;;;5071910;28;20505;-68
2021/07/19 08:45:17;;;;;;;12.35;9.25;;;;;;;;;;5074585;28;20469;-67
2021/07/19 08:47:45;;;;;;;12.93;9.48;;;;;;;;;;5075765;28;20119;-68
2021/07/19 08:50:11;;;;;;;12.23;9.43;;;;;;;;;;5076230;28;20078;-68
2021/07/19 08:52:38;;;;;;;11.02;9.57;;;;;;;;;;5076288;28;20017;-67
2021/07/19 08:55:04;;;;;;;12.48;9.10;;;;;;;;;;5075428;28;20025;-69
2021/07/19 08:57:29;;;;;;;10.73;9.27;;;;;;;;;;5076415;28;20017;-66
2021/07/19 08:59:57;;;;;;;17.70;10.00;;;;;;;;;;5075989;28;20025;-65
2021/07/19 09:02:22;;;;;;;16.75;9.57;;;;;;;;;;5079742;28;20039;-67
2021/07/19 09:04:48;;;;;;;13.38;9.93;;;;;;;;;;5095779;28;20469;-66
2021/07/19 09:07:14;;;;;;;11.70;9.75;;;;;;;;;;5095960;28;20031;-69
2021/07/19 09:09:42;;;;;;;12.82;9.95;;;;;;;;;;5095442;28;20096;-69
2021/07/19 09:12:09;;;;;;;13.43;10.18;;;;;;;;;;5077431;28;20053;-68
2021/07/19 09:14:37;;;;;;;15.52;10.63;;;;;;;;;;5077448;28;20035;-68
2021/07/19 09:17:03;;;;;;;17.80;10.63;;;;;;;;;;5095111;28;20024;-68
2021/07/19 09:19:29;;;;;;;21.15;12.00;;;;;;;;;;5095657;28;20044;-69
2021/07/19 09:21:56;;;;;;;15.55;11.73;;;;;;;;;;5095709;28;20020;-69
2021/07/19 09:24:23;;;;;;;13.55;10.60;;;;;;;;;;5094979;28;20016;-70
2021/07/19 09:26:51;;;;;;;17.60;10.60;;;;;;;;;;5095233;28;20485;-70
2021/07/19 09:29:19;;;;;;;22.03;12.60;;;;;;;;;;5073452;28;20040;-70
2021/07/19 09:31:49;;;;;;;14.35;10.98;;;;;;;;;;5071771;28;20024;-70
2021/07/19 09:34:19;;;;;;;14.63;11.20;;;;;;;;;;5094084;28;20481;-69
2021/07/19 09:37:05;;;;;;;17.10;11.75;;;;;;;;;;5095446;28;20498;-68
2021/07/19 09:39:38;;;;;;;16.52;10.48;;;;;;;;;;5094496;28;20048;-69
2021/07/19 09:42:04;;;;;;;21.65;12.75;;;;;;;;;;5055394;28;20072;-68
2021/07/19 09:44:29;;;;;;;16.98;12.05;;;;;;;;;;5091860;28;20024;-70
2021/07/19 09:47:02;;;;;;;23.90;11.82;;;;;;;;;;5075331;28;20024;-69
2021/07/19 09:49:29;;;;;;;19.67;12.48;;;;;;;;;;5093872;28;20067;-69
2021/07/19 09:51:58;;;;;;;16.08;12.10;;;;;;;;;;5093434;28;20509;-68
2021/07/19 09:54:31;;;;;;;18.52;11.30;;;;;;;;;;5075390;28;20127;-73
2021/07/19 09:57:00;;;;;;;17.58;12.48;;;;;;;;;;5068900;28;20505;-74
2021/07/19 09:59:25;;;;;;;15.93;11.63;;;;;;;;;;5091743;28;20508;-69
2021/07/19 10:01:51;;;;;;;15.93;11.23;;;;;;;;;;5094460;28;20291;-69
2021/07/19 10:04:18;;;;;;;15.88;12.45;;;;;;;;;;5077281;28;20489;-71
2021/07/19 10:06:44;;;;;;;16.00;12.15;;;;;;;;;;5094837;28;20078;-70
2021/07/19 10:09:13;;;;;;;15.20;11.15;;;;;;;;;;5094205;28;20020;-70
2021/07/19 10:11:41;;;;;;;19.27;12.35;;;;;;;;;;5076835;28;20069;-66
2021/07/19 10:14:07;;;;;;;17.67;11.98;;;;;;;;;;5094931;28;20020;-65
2021/07/19 10:16:33;;;;;;;17.75;12.10;;;;;;;;;;5094268;28;20054;-67
2021/07/19 10:18:59;;;;;;;16.88;11.90;;;;;;;;;;5094528;28;20024;-68
2021/07/19 10:21:29;;;;;;;16.40;12.63;;;;;;;;;;5094699;28;20016;-69
2021/07/19 10:24:02;;;;;;;15.18;12.15;;;;;;;;;;5093811;28;20030;-69
2021/07/19 10:26:28;;;;;;;17.25;11.30;;;;;;;;;;5094448;28;20048;-71
2021/07/19 10:28:53;;;;;;;14.10;11.60;;;;;;;;;;5094331;28;20473;-66
2021/07/19 10:31:20;;;;;;;19.33;12.00;;;;;;;;;;5094045;28;20020;-66
2021/07/19 10:33:46;;;;;;;16.63;11.88;;;;;;;;;;5094611;28;20552;-67
2021/07/19 10:36:13;;;;;;;15.20;10.80;;;;;;;;;;5094522;28;20039;-68
2021/07/19 10:38:40;;;;;;;15.30;11.50;;;;;;;;;;5093684;28;20012;-67
2021/07/19 10:41:05;;;;;;;15.27;11.25;;;;;;;;;;5094108;28;20030;-69
2021/07/19 10:43:31;;;;;;;16.83;11.20;;;;;;;;;;5094439;28;20110;-65
2021/07/19 10:46:06;;;;;;;15.82;11.77;;;;;;;;;;5094049;28;20012;-68
2021/07/19 10:48:32;;;;;;;25.05;12.00;;;;;;;;;;5076288;28;20059;-70
2021/07/19 10:50:59;;;;;;;15.25;10.65;;;;;;;;;;5093782;28;20492;-69
2021/07/19 10:53:28;;;;;;;18.55;11.68;;;;;;;;;;5093605;28;20058;-68
2021/07/19 10:55:53;;;;;;;;;;;;;;;;;;5094384;28;20015;-69
2021/07/19 10:58:19;;;;;;;15.80;11.93;;;;;;;;;;5094173;28;19908;-71
2021/07/19 11:00:46;;;;;;;15.90;11.25;;;;;;;;;;5093235;28;20681;-66
2021/07/19 11:03:13;;;;;;;18.13;11.85;;;;;;;;;;5071583;28;20504;-68
2021/07/19 11:05:40;;;;;;;17.90;11.05;;;;;;;;;;5074104;28;20012;-68
2021/07/19 11:08:07;;;;;;;15.05;11.45;;;;;;;;;;5092893;28;20024;-69
2021/07/19 11:10:52;;;;;;;15.77;11.23;;;;;;;;;;5093842;28;20023;-65
2021/07/19 11:13:35;;;;;;;14.88;11.63;;;;;;;;;;5093884;28;20020;-67
2021/07/19 11:16:13;;;;;;;22.25;10.30;;;;;;;;;;5093046;28;20376;-68
2021/07/19 11:18:38;;;;;;;13.90;11.52;;;;;;;;;;5093660;28;20417;-67
2021/07/19 11:21:05;;;;;;;15.75;11.48;;;;;;;;;;5093013;28;20078;-67
2021/07/19 11:23:32;;;;;;;15.27;11.25;;;;;;;;;;5093563;28;20023;-68
2021/07/19 11:25:59;;;;;;;15.90;12.05;;;;;;;;;;5093246;28;20040;-64
2021/07/19 11:28:27;;;;;;;15.27;11.60;;;;;;;;;;5093288;28;20024;-64
2021/07/19 11:31:01;;;;;;;16.08;12.50;;;;;;;;;;5093237;28;20016;-74
2021/07/19 11:33:31;;;;;;;17.25;11.38;;;;;;;;;;5058742;28;20380;-72
2021/07/19 11:35:57;;;;;;;15.07;11.85;;;;;;;;;;5092773;28;20038;-70
2021/07/19 11:38:22;;;;;;;22.77;12.07;;;;;;;;;;5093394;28;20061;-70
2021/07/19 11:40:48;;;;;;;20.13;12.93;;;;;;;;;;5074787;28;20541;-68
2021/07/19 11:43:24;;;;;;;18.65;12.98;;;;;;;;;;5092879;28;20020;-68
2021/07/19 11:45:52;;;;;;;15.15;12.13;;;;;;;;;;5093434;28;20047;-74
2021/07/19 11:48:21;;;;;;;18.25;11.73;;;;;;;;;;5093035;28;20116;-73
2021/07/19 11:50:46;;;;;;;;;;;;;;;;;;5074703;28;20016;-73
2021/07/19 11:53:11;;;;;;;15.43;12.03;;;;;;;;;;5093167;28;20364;-76
2021/07/19 11:55:38;;;;;;;16.50;11.75;;;;;;;;;;5093163;28;20257;-78
2021/07/19 11:58:03;;;;;;;15.15;11.77;;;;;;;;;;5093117;28;20012;-76
2021/07/19 12:00:34;;;;;;;14.73;11.70;;;;;;;;;;5092821;28;20031;-77
2021/07/19 12:03:10;;;;;;;15.13;11.27;;;;;;;;;;5074566;28;20469;-77
2021/07/19 12:05:38;;;;;;;17.63;11.27;;;;;;;;;;5092777;28;20054;-68
2021/07/19 12:08:05;;;;;;;17.33;10.90;;;;;;;;;;5092617;28;20115;-67
2021/07/19 12:10:33;;;;;;;14.15;10.73;;;;;;;;;;5057706;28;20032;-67
2021/07/19 12:13:07;;;;;;;14.13;10.70;;;;;;;;;;5092075;28;20018;-67
2021/07/19 12:15:32;;;;;;;14.55;11.50;;;;;;;;;;5092597;28;20292;-68
2021/07/19 12:17:58;;;;;;;13.55;10.05;;;;;;;;;;5092640;28;20059;-68
2021/07/19 12:20:25;;;;;;;13.13;10.52;;;;;;;;;;5071521;28;20019;-67
2021/07/19 12:22:55;;;;;;;13.10;9.82;;;;;;;;;;5091677;28;20020;-67
2021/07/19 12:25:21;;;;;;;17.77;9.77;;;;;;;;;;5091523;28;20504;-68
2021/07/19 12:28:06;;;;;;;13.80;9.05;;;;;;;;;;5092095;28;20035;-69
2021/07/19 12:30:31;;;;;;;10.73;9.30;;;;;;;;;;5074041;28;20059;-74
2021/07/19 12:32:57;;;;;;;12.27;8.43;;;;;;;;;;5092133;28;20055;-68
2021/07/19 12:35:24;;;;;;;12.07;8.73;;;;;;;;;;5092229;28;20020;-67
2021/07/19 12:37:54;;;;;;;12.88;8.80;;;;;;;;;;5091855;28;20080;-67
2021/07/19 12:40:19;;;;;;;9.65;8.52;;;;;;;;;;5092537;28;20495;-71
2021/07/19 12:42:46;;;;;;;10.30;8.40;;;;;;;;;;5074227;28;20024;-70
2021/07/19 12:45:12;;;;;;;13.55;9.50;;;;;;;;;;5074316;28;20016;-74
2021/07/19 12:47:38;;;;;;;12.68;9.82;;;;;;;;;;5057733;28;20068;-69
2021/07/19 12:50:05;;;;;;;11.05;9.05;;;;;;;;;;5092116;28;20103;-69
2021/07/19 12:52:31;;;;;;;9.60;8.60;;;;;;;;;;5091818;28;20103;-70
2021/07/19 12:55:04;;;;;;;11.93;9.00;;;;;;;;;;5073777;28;20047;-69
2021/07/19 12:57:31;;;;;;;13.30;9.82;;;;;;;;;;5070254;28;20020;-69
2021/07/19 12:59:57;;;;;;;15.15;9.82;;;;;;;;;;5089978;28;20020;-68
2021/07/19 13:02:23;;;;;;;11.30;9.35;;;;;;;;;;5074416;28;20016;-69
2021/07/19 13:04:50;;;;;;;12.68;9.10;;;;;;;;;;5073974;28;20024;-69
2021/07/19 13:07:29;;;;;;;14.20;9.88;;;;;;;;;;5091486;28;20028;-69
2021/07/19 13:09:56;;;;;;;12.60;9.00;;;;;;;;;;5092126;28;20008;-70
2021/07/19 13:12:21;;;;;;;13.85;9.23;;;;;;;;;;5057229;28;20020;-65
2021/07/19 13:14:47;;;;;;;15.40;9.52;;;;;;;;;;5091786;28;20073;-65
2021/07/19 13:17:17;;;;;;;14.07;8.27;;;;;;;;;;5069663;28;20028;-69
2021/07/19 13:19:46;;;;;;;10.73;8.68;;;;;;;;;;5091259;28;20020;-68
2021/07/19 13:22:11;;;;;;;;;;;;;;;;;;5092137;28;20020;-70
2021/07/19 13:24:38;;;;;;;10.83;8.20;;;;;;;;;;5092298;28;19904;-73
2021/07/19 13:27:04;;;;;;;10.98;7.68;;;;;;;;;;5091925;28;20071;-73
2021/07/19 13:29:30;;;;;;;11.73;7.60;;;;;;;;;;5092032;28;20035;-72
2021/07/19 13:32:10;;;;;;;8.60;7.30;;;;;;;;;;5094840;28;20020;-71
2021/07/19 13:34:35;;;;;;;10.02;7.40;;;;;;;;;;5077585;28;20047;-75
2021/07/19 13:37:01;;;;;;;10.80;6.65;;;;;;;;;;5095224;28;20116;-66
2021/07/19 13:39:27;;;;;;;9.38;7.10;;;;;;;;;;5095574;28;20142;-66
2021/07/19 13:42:00;;;;;;;9.20;6.88;;;;;;;;;;5077275;28;20489;-67
2021/07/19 13:44:25;;;;;;;10.73;6.55;;;;;;;;;;5094873;28;20020;-68
2021/07/19 13:46:51;;;;;;;8.63;6.97;;;;;;;;;;5095105;28;20031;-68
2021/07/19 13:49:16;;;;;;;7.80;6.82;;;;;;;;;;5095354;28;20031;-68
2021/07/19 13:51:42;;;;;;;8.27;6.47;;;;;;;;;;5076593;28;20047;-69
2021/07/19 13:54:07;;;;;;;8.98;6.82;;;;;;;;;;5095665;28;20373;-70
2021/07/19 13:56:34;;;;;;;8.50;5.80;;;;;;;;;;5095466;28;20028;-69
2021/07/19 13:58:59;;;;;;;8.13;6.82;;;;;;;;;;5094672;28;20020;-69
2021/07/19 14:01:25;;;;;;;10.73;6.68;;;;;;;;;;5095005;28;20027;-71
2021/07/19 14:03:50;;;;;;;6.82;5.78;;;;;;;;;;5095290;28;20044;-70
2021/07/19 14:06:16;;;;;;;9.85;6.70;;;;;;;;;;5094344;28;20098;-71
2021/07/19 14:08:41;;;;;;;8.65;6.10;;;;;;;;;;5076300;28;20119;-71
2021/07/19 14:11:07;;;;;;;10.55;6.60;;;;;;;;;;5094684;28;20468;-71
2021/07/19 14:13:32;;;;;;;8.60;6.43;;;;;;;;;;5094548;28;20432;-70
2021/07/19 14:15:58;;;;;;;8.40;6.07;;;;;;;;;;5076385;28;20031;-70
2021/07/19 14:18:23;;;;;;;7.75;5.70;;;;;;;;;;5072847;28;20032;-70
2021/07/19 14:20:50;;;;;;;13.02;6.60;;;;;;;;;;5074106;28;20035;-71
2021/07/19 14:23:15;;;;;;;7.60;5.78;;;;;;;;;;5073507;28;20076;-73